Time;durP1;ratioP1;P1;durP2;ratioP2;P2;SDS_P1;SDS_P2;PMS_P1;PMS_P2;Temp;Humidity;BMP_temperature;BMP_pressure;BME280_temperature;BME280_humidity;BME280_pressure;Samples;Min_cycle;Max_cycle;Signal;HPM_P1;HPM_P2
2022/11/29 00:00:40;;;;;;;28.30;17.80;;;;;;;6.22;92.98;100273.47;4983675;28;20240;-65
2022/11/29 00:03:06;;;;;;;29.57;17.70;;;;;;;6.21;93.18;100271.69;4988417;28;20759;-63
2022/11/29 00:05:33;;;;;;;29.73;16.83;;;;;;;6.16;93.33;100277.66;4988246;28;20655;-62
2022/11/29 00:08:00;;;;;;;29.50;16.30;;;;;;;6.14;93.56;100275.00;4987215;28;20211;-64
2022/11/29 00:10:26;;;;;;;28.80;17.60;;;;;;;6.11;93.46;100269.66;4979935;28;20221;-64
2022/11/29 00:12:52;;;;;;;29.60;18.00;;;;;;;6.20;93.47;100269.91;4985876;28;20716;-63
2022/11/29 00:15:19;;;;;;;30.13;17.13;;;;;;;6.17;93.22;100275.09;4989507;28;20200;-63
2022/11/29 00:17:45;;;;;;;28.13;16.60;;;;;;;6.17;93.56;100271.56;4986683;28;20250;-63
2022/11/29 00:20:12;;;;;;;28.50;16.23;;;;;;;6.19;93.40;100270.75;4988921;28;20236;-62
2022/11/29 00:22:38;;;;;;;30.87;18.00;;;;;;;6.23;93.35;100267.38;4986400;28;20291;-64
2022/11/29 00:25:08;;;;;;;30.07;17.57;;;;;;;6.22;93.36;100272.59;4989102;28;20209;-63
2022/11/29 00:27:34;;;;;;;27.23;17.00;;;;;;;6.22;93.51;100269.97;4988563;28;20276;-63
2022/11/29 00:30:01;;;;;;;29.17;17.47;;;;;;;6.33;93.03;100270.25;4985855;28;20221;-62
2022/11/29 00:32:27;;;;;;;26.67;17.13;;;;;;;6.30;93.28;100271.06;4987006;28;20665;-63
2022/11/29 00:34:53;;;;;;;29.50;17.87;;;;;;;6.34;93.01;100272.03;4987124;28;20204;-63
2022/11/29 00:37:24;;;;;;;29.33;17.30;;;;;;;6.31;93.03;100272.84;4984473;28;20394;-61
2022/11/29 00:39:51;;;;;;;30.77;16.77;;;;;;;6.28;93.05;100272.75;4986833;28;20271;-64
2022/11/29 00:42:17;;;;;;;28.77;17.30;;;;;;;6.25;93.47;100284.09;4988172;28;20292;-64
2022/11/29 00:44:43;;;;;;;29.60;16.07;;;;;;;6.24;93.59;100273.53;4986123;28;20258;-64
2022/11/29 00:47:10;;;;;;;27.07;16.40;;;;;;;6.23;93.37;100275.25;4985328;28;20280;-63
2022/11/29 00:49:36;;;;;;;28.53;16.83;;;;;;;6.28;93.49;100284.16;4988260;28;20304;-65
2022/11/29 00:52:03;;;;;;;30.93;18.00;;;;;;;6.29;93.45;100283.31;4990532;28;20252;-64
2022/11/29 00:54:29;;;;;;;26.53;16.40;;;;;;;6.29;93.38;100280.69;4990894;28;20208;-64
2022/11/29 00:56:56;;;;;;;28.50;16.27;;;;;;;6.31;93.33;100278.09;4989017;28;20197;-63
2022/11/29 00:59:22;;;;;;;29.60;16.57;;;;;;;6.33;93.25;100288.66;4990332;28;20271;-63
2022/11/29 01:01:49;;;;;;;27.60;17.23;;;;;;;6.36;93.14;100275.59;4989374;28;20235;-63
2022/11/29 01:04:15;;;;;;;31.07;17.43;;;;;;;6.38;92.64;100285.31;4988206;28;20588;-63
2022/11/29 01:06:42;;;;;;;26.80;16.07;;;;;;;6.35;92.52;100284.34;4991031;28;20680;-64
2022/11/29 01:09:08;;;;;;;25.70;15.97;;;;;;;6.34;92.60;100288.72;4991988;28;20760;-64
2022/11/29 01:11:34;;;;;;;26.57;17.43;;;;;;;6.28;92.94;100284.16;4992361;28;20309;-64
2022/11/29 01:14:02;;;;;;;26.47;16.50;;;;;;;6.36;93.00;100288.75;4987090;28;20225;-64
2022/11/29 01:16:29;;;;;;;26.93;16.30;;;;;;;6.31;92.83;100283.34;4991574;28;20283;-63
2022/11/29 01:18:56;;;;;;;26.37;17.07;;;;;;;6.25;93.07;100288.44;4988120;28;20285;-63
2022/11/29 01:21:23;;;;;;;32.00;17.70;;;;;;;6.27;92.90;100281.50;4988111;28;20668;-63
2022/11/29 01:23:50;;;;;;;28.03;17.10;;;;;;;6.28;93.25;100291.16;4990726;28;20201;-64
2022/11/29 01:26:21;;;;;;;25.23;15.70;;;;;;;6.30;92.90;100273.69;4991214;28;20193;-63
2022/11/29 01:28:49;;;;;;;29.80;18.13;;;;;;;6.23;92.90;100283.16;4991829;28;20254;-63
2022/11/29 01:31:19;;;;;;;29.00;17.87;;;;;;;6.18;92.91;100290.00;4990365;28;20308;-64
2022/11/29 01:33:45;;;;;;;27.60;15.87;;;;;;;6.16;93.33;100288.19;4974888;28;20637;-63
2022/11/29 01:36:13;;;;;;;28.17;16.77;;;;;;;6.10;93.40;100290.63;4991381;28;20232;-63
2022/11/29 01:38:41;;;;;;;27.80;16.40;;;;;;;6.16;93.59;100299.59;4991763;28;20292;-64
2022/11/29 01:41:12;;;;;;;28.87;17.17;;;;;;;6.18;93.66;100300.53;4989376;28;20245;-63
2022/11/29 01:44:02;;;;;;;26.93;16.20;;;;;;;6.18;93.58;100310.16;4990477;28;20199;-63
2022/11/29 01:46:34;;;;;;;32.50;17.90;;;;;;;6.16;93.65;100311.84;4988252;28;20215;-65
2022/11/29 01:49:08;;;;;;;29.13;17.17;;;;;;;6.16;93.86;100311.84;4990486;28;20317;-65
2022/11/29 01:51:36;;;;;;;27.70;16.87;;;;;;;6.22;93.95;100310.28;4990820;28;20232;-63
2022/11/29 01:54:04;;;;;;;28.37;16.93;;;;;;;6.28;93.84;100314.84;4973624;28;20193;-64
2022/11/29 01:56:33;;;;;;;28.37;16.87;;;;;;;6.26;93.60;100316.53;4985870;28;20201;-63
2022/11/29 01:59:03;;;;;;;26.30;16.80;;;;;;;6.18;93.64;100308.41;4989730;28;20319;-65
2022/11/29 02:01:30;;;;;;;27.50;15.77;;;;;;;6.15;93.74;100312.69;4991434;28;20235;-64
2022/11/29 02:03:58;;;;;;;28.03;16.73;;;;;;;6.13;94.01;100301.25;4991474;28;20224;-63
2022/11/29 02:06:25;;;;;;;30.60;17.13;;;;;;;6.09;93.95;100295.00;4989528;28;20201;-64
2022/11/29 02:08:52;;;;;;;28.23;16.50;;;;;;;6.08;94.30;100294.97;4989928;28;20654;-64
2022/11/29 02:11:33;;;;;;;28.37;17.00;;;;;;;6.06;94.40;100297.56;4987524;28;20792;-63
2022/11/29 02:14:17;;;;;;;30.13;17.50;;;;;;;6.13;94.53;100304.78;4989940;28;20291;-63
2022/11/29 02:17:02;;;;;;;29.67;17.00;;;;;;;6.12;94.49;100299.47;4970037;28;20203;-65
2022/11/29 02:19:50;;;;;;;29.73;17.93;;;;;;;6.15;94.22;100305.69;4988904;28;20644;-64
2022/11/29 02:22:35;;;;;;;29.20;17.53;;;;;;;6.09;94.12;100308.16;4986068;28;20283;-64
2022/11/29 02:25:26;;;;;;;29.30;17.87;;;;;;;6.08;94.49;100300.22;4988811;28;20274;-64
2022/11/29 02:28:18;;;;;;;30.57;18.47;;;;;;;6.20;94.18;100298.84;4987095;28;20751;-65
2022/11/29 02:30:58;;;;;;;28.97;17.50;;;;;;;6.14;94.26;100303.03;4980919;28;20221;-64
2022/11/29 02:34:16;;;;;;;31.87;16.63;;;;;;;6.25;93.93;100301.59;4990641;28;20290;-64
2022/11/29 02:36:51;;;;;;;28.47;17.27;;;;;;;6.28;93.97;100312.19;4888579;29;20285;-64
2022/11/29 02:39:29;;;;;;;28.93;17.33;;;;;;;6.27;93.86;100308.69;4891675;29;20334;-64
2022/11/29 02:42:11;;;;;;;32.53;17.80;;;;;;;6.23;94.12;100312.06;4960976;28;20206;-64
2022/11/29 02:45:06;;;;;;;29.90;17.53;;;;;;;6.27;93.96;100315.69;4990052;28;20194;-63
2022/11/29 02:48:14;;;;;;;30.43;17.40;;;;;;;6.29;93.99;100313.97;4987043;28;20209;-64
2022/11/29 02:51:03;;;;;;;29.50;17.10;;;;;;;6.24;93.95;100297.19;4979935;28;20223;-64
2022/11/29 02:53:40;;;;;;;27.90;16.33;;;;;;;6.14;93.97;100303.03;4972300;28;20203;-65
2022/11/29 02:56:12;;;;;;;26.53;15.50;;;;;;;6.14;94.27;100309.19;4985305;28;20204;-64
2022/11/29 02:58:48;;;;;;;26.20;16.10;;;;;;;6.12;94.39;100308.25;4981900;28;20207;-65
2022/11/29 03:01:37;;;;;;;29.00;16.90;;;;;;;6.13;94.25;100315.28;4980615;28;20206;-64
2022/11/29 03:04:16;;;;;;;25.83;15.33;;;;;;;6.18;94.53;100316.31;4983285;28;20235;-66
2022/11/29 03:06:57;;;;;;;28.30;16.50;;;;;;;6.22;94.65;100319.91;4982027;28;20204;-65
2022/11/29 03:09:59;;;;;;;25.37;15.77;;;;;;;6.28;94.15;100322.72;4981202;28;20299;-63
2022/11/29 03:12:48;;;;;;;28.10;16.03;;;;;;;6.32;94.15;100318.44;4941980;28;20292;-64
2022/11/29 03:15:35;;;;;;;25.77;15.80;;;;;;;6.35;93.83;100318.53;4979495;28;20285;-63
2022/11/29 03:18:19;;;;;;;25.87;16.07;;;;;;;6.37;93.77;100319.47;4980017;28;20913;-64
2022/11/29 03:21:04;;;;;;;25.63;15.97;;;;;;;6.37;94.13;100322.97;4978682;28;20649;-63
2022/11/29 03:23:46;;;;;;;26.60;15.77;;;;;;;6.38;93.36;100322.13;4978180;28;20232;-64
2022/11/29 03:26:30;;;;;;;25.17;15.13;;;;;;;6.34;93.08;100328.16;4983176;28;20237;-63
2022/11/29 03:29:06;;;;;;;27.10;15.73;;;;;;;6.27;93.15;100332.34;4980092;28;20776;-63
2022/11/29 03:31:38;;;;;;;27.03;16.07;;;;;;;6.19;93.38;100338.22;4978957;28;20223;-63
2022/11/29 03:34:26;;;;;;;25.23;15.67;;;;;;;6.16;93.75;100336.41;4965771;28;20212;-65
2022/11/29 03:37:08;;;;;;;24.80;15.67;;;;;;;6.15;94.04;100329.38;4982387;28;20673;-66
2022/11/29 03:39:50;;;;;;;27.20;15.20;;;;;;;6.11;94.21;100327.50;4985324;28;20647;-64
2022/11/29 03:42:21;;;;;;;25.93;15.57;;;;;;;6.15;94.46;100339.00;4986094;28;20247;-64
2022/11/29 03:44:58;;;;;;;27.00;16.37;;;;;;;6.13;94.46;100333.69;4984769;28;20197;-63
2022/11/29 03:47:30;;;;;;;26.93;16.40;;;;;;;6.13;94.62;100330.16;4985141;28;20391;-63
2022/11/29 03:50:04;;;;;;;27.83;16.43;;;;;;;6.17;94.52;100332.03;4985604;28;20735;-66
2022/11/29 03:52:56;;;;;;;28.10;15.77;;;;;;;6.19;94.67;100344.38;4985343;28;20212;-63
2022/11/29 03:55:48;;;;;;;25.97;15.57;;;;;;;6.39;94.14;100341.44;4974504;28;20453;-64
2022/11/29 03:58:35;;;;;;;24.20;15.30;;;;;;;6.50;93.04;100340.94;4984435;28;20205;-64
2022/11/29 04:01:20;;;;;;;25.73;15.70;;;;;;;6.41;93.41;100340.66;4986517;28;20283;-64
2022/11/29 04:04:45;;;;;;;26.57;16.20;;;;;;;6.31;93.26;100342.97;4985186;28;20288;-63
2022/11/29 04:07:38;;;;;;;26.80;15.37;;;;;;;6.25;93.96;100338.41;4885752;29;20714;-65
2022/11/29 04:10:15;;;;;;;28.60;16.80;;;;;;;6.21;93.77;100333.91;4888220;29;20279;-65
2022/11/29 04:13:02;;;;;;;27.73;15.83;;;;;;;6.16;93.95;100338.16;4955970;28;20520;-63
2022/11/29 04:15:41;;;;;;;27.40;16.50;;;;;;;6.25;93.73;100341.94;4985329;28;20196;-66
2022/11/29 04:18:25;;;;;;;28.73;16.47;;;;;;;6.28;93.73;100342.03;4984267;28;20298;-63
2022/11/29 04:21:13;;;;;;;26.63;15.87;;;;;;;6.24;94.03;100341.88;4982897;28;20352;-64
2022/11/29 04:24:19;;;;;;;27.47;15.77;;;;;;;6.19;94.10;100339.13;4985449;28;20208;-64
2022/11/29 04:27:07;;;;;;;27.20;15.13;;;;;;;6.18;94.14;100345.22;4989385;28;20230;-64
2022/11/29 04:29:49;;;;;;;26.47;15.67;;;;;;;6.20;94.24;100354.06;4989952;28;20304;-65
2022/11/29 04:32:27;;;;;;;26.93;16.70;;;;;;;6.21;94.11;100360.22;4985045;28;20310;-64
2022/11/29 04:35:06;;;;;;;28.90;16.40;;;;;;;6.25;94.29;100356.81;4989497;28;20197;-63
2022/11/29 04:38:03;;;;;;;25.73;15.80;;;;;;;6.35;93.99;100360.59;4987342;28;20287;-64
2022/11/29 04:40:55;;;;;;;25.30;15.77;;;;;;;6.32;94.16;100357.88;4990601;28;20219;-63
2022/11/29 04:43:42;;;;;;;28.20;16.03;;;;;;;6.34;94.15;100356.19;4986461;28;20294;-63
2022/11/29 04:46:39;;;;;;;25.93;16.17;;;;;;;6.30;93.95;100363.09;4986202;28;20286;-64
2022/11/29 04:49:27;;;;;;;26.03;14.70;;;;;;;6.29;94.26;100366.56;4990815;28;20732;-64
2022/11/29 04:52:12;;;;;;;27.37;15.17;;;;;;;6.28;93.81;100367.44;4989742;28;20213;-64
2022/11/29 04:54:46;;;;;;;28.97;16.60;;;;;;;6.26;94.41;100379.63;4981427;28;20280;-63
2022/11/29 04:57:24;;;;;;;26.07;15.93;;;;;;;6.26;94.23;100382.28;4985559;28;20204;-64
2022/11/29 05:00:01;;;;;;;28.40;15.80;;;;;;;6.42;94.04;100381.00;4982679;28;20235;-64
2022/11/29 05:02:54;;;;;;;23.50;14.90;;;;;;;6.49;93.42;100388.22;4966055;28;20192;-64
2022/11/29 05:05:33;;;;;;;30.27;16.27;;;;;;;6.36;93.44;100383.44;4964503;28;20228;-63
2022/11/29 05:08:20;;;;;;;27.60;16.33;;;;;;;6.31;93.53;100392.94;4981630;28;20302;-64
2022/11/29 05:11:17;;;;;;;29.97;15.87;;;;;;;6.27;93.89;100392.84;4982449;28;20224;-63
2022/11/29 05:14:00;;;;;;;25.37;15.30;;;;;;;6.35;93.81;100398.31;4982677;28;20557;-66
2022/11/29 05:16:41;;;;;;;25.83;15.87;;;;;;;6.31;93.72;100400.81;4980127;28;20665;-63
2022/11/29 05:19:26;;;;;;;26.07;16.23;;;;;;;6.42;93.68;100405.59;4985297;28;20775;-63
2022/11/29 05:22:19;;;;;;;28.13;16.13;;;;;;;6.42;93.32;100407.31;4983271;28;20674;-63
2022/11/29 05:25:19;;;;;;;26.67;15.77;;;;;;;6.40;93.36;100406.34;4981614;28;20372;-63
2022/11/29 05:27:55;;;;;;;27.50;15.97;;;;;;;6.39;93.51;100408.09;4982495;28;20225;-65
2022/11/29 05:30:27;;;;;;;28.43;16.23;;;;;;;6.48;93.21;100412.75;4981831;28;20251;-66
2022/11/29 05:33:27;;;;;;;26.77;16.93;;;;;;;6.54;92.69;100412.94;4980490;28;20213;-63
2022/11/29 05:36:18;;;;;;;26.77;16.80;;;;;;;6.53;92.64;100411.16;4986352;28;20200;-63
2022/11/29 05:39:17;;;;;;;29.13;16.50;;;;;;;6.48;92.65;100407.50;4986609;28;20199;-63
2022/11/29 05:42:09;;;;;;;36.67;16.07;;;;;;;6.40;93.18;100416.88;4986677;28;20193;-64
2022/11/29 05:44:40;;;;;;;26.33;15.27;;;;;;;6.37;93.54;100415.03;4988180;28;20201;-64
2022/11/29 05:47:09;;;;;;;24.70;15.50;;;;;;;6.53;93.06;100411.16;4982611;28;20207;-64
2022/11/29 05:49:54;;;;;;;27.40;15.73;;;;;;;6.51;93.21;100410.22;4977564;28;20255;-66
2022/11/29 05:52:38;;;;;;;25.30;15.07;;;;;;;6.58;92.70;100412.19;4984449;28;20310;-63
2022/11/29 05:55:10;;;;;;;26.93;15.00;;;;;;;6.55;92.49;100420.88;4989916;28;20288;-66
2022/11/29 05:57:54;;;;;;;26.00;15.23;;;;;;;6.52;92.54;100417.25;4987049;28;20200;-63
2022/11/29 06:00:21;;;;;;;24.47;15.30;;;;;;;6.53;92.42;100419.03;4984197;28;20665;-65
2022/11/29 06:02:57;;;;;;;24.63;14.93;;;;;;;6.51;92.47;100426.91;4983591;28;20622;-64
2022/11/29 06:05:44;;;;;;;27.77;15.00;;;;;;;6.36;92.71;100422.88;4984199;28;20222;-64
2022/11/29 06:08:41;;;;;;;29.73;15.90;;;;;;;6.31;92.95;100422.75;4987103;28;20207;-64
2022/11/29 06:11:25;;;;;;;28.33;15.70;;;;;;;6.26;92.90;100413.81;4983263;28;20200;-64
2022/11/29 06:14:08;;;;;;;26.90;15.63;;;;;;;6.24;93.21;100424.31;4981705;28;20203;-63
2022/11/29 06:16:52;;;;;;;25.37;15.43;;;;;;;6.23;93.30;100435.66;4979089;28;20383;-62
2022/11/29 06:19:31;;;;;;;29.87;16.17;;;;;;;6.16;93.74;100428.44;4987131;28;20773;-64
2022/11/29 06:22:08;;;;;;;24.67;14.67;;;;;;;6.12;93.80;100437.06;4990497;28;20255;-63
2022/11/29 06:24:55;;;;;;;25.97;14.77;;;;;;;6.09;94.24;100443.97;4984928;28;20330;-63
2022/11/29 06:27:24;;;;;;;23.70;14.93;;;;;;;6.08;94.19;100448.34;4982840;28;20213;-62
2022/11/29 06:30:01;;;;;;;24.20;14.40;;;;;;;6.21;94.36;100442.63;4986378;28;20303;-61
2022/11/29 06:32:36;;;;;;;27.87;15.27;;;;;;;6.19;94.19;100435.53;4966913;28;20687;-67
2022/11/29 06:35:32;;;;;;;25.97;14.83;;;;;;;6.27;93.81;100442.81;4983746;28;20231;-63
2022/11/29 06:38:03;;;;;;;24.53;14.80;;;;;;;6.20;94.32;100439.94;4989803;28;20272;-66
2022/11/29 06:40:29;;;;;;;24.47;14.63;;;;;;;6.15;94.16;100442.44;4989503;28;20253;-64
2022/11/29 06:42:55;;;;;;;25.90;15.17;;;;;;;6.15;94.50;100438.91;4977678;28;20297;-65
2022/11/29 06:45:22;;;;;;;27.47;15.40;;;;;;;6.06;94.64;100444.78;4972849;28;20281;-64
2022/11/29 06:47:56;;;;;;;24.17;15.33;;;;;;;6.09;94.68;100449.22;4980316;28;20228;-64
2022/11/29 06:50:39;;;;;;;27.20;15.93;;;;;;;6.12;94.88;100454.59;4988195;28;20307;-63
2022/11/29 06:53:20;;;;;;;26.67;15.37;;;;;;;6.15;95.16;100460.81;4987672;28;20308;-63
2022/11/29 06:56:05;;;;;;;27.23;14.67;;;;;;;6.16;94.89;100465.25;4983235;28;20238;-64
2022/11/29 06:58:49;;;;;;;24.47;15.07;;;;;;;6.17;95.13;100464.41;4978312;28;20291;-64
2022/11/29 07:01:48;;;;;;;24.87;15.10;;;;;;;6.22;95.03;100468.06;4982256;28;20250;-63
2022/11/29 07:04:24;;;;;;;28.03;15.47;;;;;;;6.29;95.16;100467.41;4984642;28;20735;-64
2022/11/29 07:06:51;;;;;;;24.80;15.20;;;;;;;6.28;95.11;100472.63;4978273;28;20212;-64
2022/11/29 07:09:19;;;;;;;28.87;15.77;;;;;;;6.28;95.29;100481.41;4985321;28;20221;-64
2022/11/29 07:11:46;;;;;;;26.57;15.10;;;;;;;6.26;95.13;100484.81;4978822;28;20212;-65
2022/11/29 07:14:13;;;;;;;26.03;14.53;;;;;;;6.30;95.35;100481.44;4983043;28;20238;-65
2022/11/29 07:17:04;;;;;;;28.30;15.80;;;;;;;6.33;94.99;100480.66;4949584;28;20220;-64
2022/11/29 07:19:42;;;;;;;27.30;15.80;;;;;;;6.36;95.06;100489.53;4981219;28;20312;-64
2022/11/29 07:22:31;;;;;;;29.93;15.43;;;;;;;6.45;95.49;100491.59;4982316;28;20228;-64
2022/11/29 07:25:12;;;;;;;23.13;14.03;;;;;;;6.50;95.26;100490.88;4967631;28;20308;-64
2022/11/29 07:27:55;;;;;;;27.37;15.60;;;;;;;6.52;94.97;100494.44;4989408;28;20620;-64
2022/11/29 07:30:45;;;;;;;25.07;15.00;;;;;;;6.54;95.09;100495.38;4983241;28;20213;-66
2022/11/29 07:33:23;;;;;;;25.73;15.67;;;;;;;6.56;95.32;100496.31;4984104;28;20600;-63
2022/11/29 07:36:28;;;;;;;28.73;16.13;;;;;;;6.60;95.00;100503.47;4983201;28;20650;-62
2022/11/29 07:39:31;;;;;;;30.30;16.40;;;;;;;6.62;95.11;100506.16;4923286;29;20209;-63
2022/11/29 07:42:27;;;;;;;30.00;16.60;;;;;;;6.65;95.18;100510.59;4981019;28;20284;-62
2022/11/29 07:44:59;;;;;;;31.37;16.93;;;;;;;6.68;94.97;100506.31;4985477;28;20197;-62
2022/11/29 07:47:25;;;;;;;26.07;15.90;;;;;;;6.64;94.94;100490.41;4969873;28;20288;-63
2022/11/29 07:49:57;;;;;;;24.73;15.33;;;;;;;6.72;95.03;100499.41;4989760;28;20221;-63
2022/11/29 07:52:24;;;;;;;28.90;15.77;;;;;;;6.78;94.70;100504.88;4987769;28;20309;-60
2022/11/29 07:54:50;;;;;;;26.90;16.43;;;;;;;6.83;94.38;100503.28;4985991;28;20193;-68
2022/11/29 07:57:16;;;;;;;25.73;16.17;;;;;;;6.83;94.33;100505.94;4985215;28;20239;-64
2022/11/29 07:59:43;;;;;;;25.50;15.37;;;;;;;6.83;94.33;100513.81;4971407;28;20236;-64
2022/11/29 08:02:10;;;;;;;22.13;14.13;;;;;;;6.82;94.33;100507.66;4969273;28;20196;-64
2022/11/29 08:04:42;;;;;;;24.20;14.83;;;;;;;6.98;93.72;100516.00;4986529;28;20885;-64
2022/11/29 08:07:10;;;;;;;26.23;14.80;;;;;;;6.97;93.42;100527.38;4986071;28;20800;-64
2022/11/29 08:09:36;;;;;;;26.50;14.97;;;;;;;6.96;93.69;100523.88;4988014;28;20256;-65
2022/11/29 08:12:03;;;;;;;26.73;16.30;;;;;;;7.06;93.13;100520.66;4988876;28;20308;-64
2022/11/29 08:14:32;;;;;;;26.90;14.80;;;;;;;6.98;93.27;100522.16;4984702;28;20195;-63
2022/11/29 08:16:59;;;;;;;27.03;15.27;;;;;;;7.01;93.21;100519.63;4987585;28;20212;-65
2022/11/29 08:19:25;;;;;;;27.07;15.63;;;;;;;7.13;92.74;100527.88;4988522;28;20224;-65
2022/11/29 08:21:51;;;;;;;25.07;14.37;;;;;;;7.13;92.58;100532.25;4984590;28;20652;-64
2022/11/29 08:24:18;;;;;;;26.73;15.70;;;;;;;7.17;92.45;100534.13;4989632;28;20197;-64
2022/11/29 08:26:44;;;;;;;26.97;15.87;;;;;;;7.17;92.20;100536.75;4992324;28;20293;-64
2022/11/29 08:29:11;;;;;;;27.40;16.03;;;;;;;7.05;92.14;100537.28;4974425;28;20652;-63
2022/11/29 08:31:37;;;;;;;30.00;16.37;;;;;;;7.19;92.07;100540.31;4988203;28;20248;-65
2022/11/29 08:34:05;;;;;;;33.53;16.90;;;;;;;7.21;91.49;100543.94;4988072;28;20576;-64
2022/11/29 08:36:32;;;;;;;32.03;16.60;;;;;;;7.27;91.30;100551.13;4985323;28;20287;-64
2022/11/29 08:39:01;;;;;;;32.93;17.30;;;;;;;7.32;91.03;100553.03;4988462;28;20239;-63
2022/11/29 08:41:34;;;;;;;30.23;17.67;;;;;;;7.33;91.27;100546.00;4991988;28;20606;-64
2022/11/29 08:44:01;;;;;;;29.93;17.63;;;;;;;7.27;91.11;100548.47;4990060;28;20233;-63
2022/11/29 08:47:34;;;;;;;35.40;17.63;;;;;;;7.24;91.22;100551.91;4992260;28;20201;-63
2022/11/29 08:49:13;;;;;;;27.40;16.87;;;;;;;7.22;91.46;100556.25;4989807;28;20279;-63
2022/11/29 08:51:40;;;;;;;27.33;15.87;;;;;;;7.18;91.57;100541.16;4989230;28;20196;-65
2022/11/29 08:54:06;;;;;;;28.77;17.50;;;;;;;7.24;91.64;100551.91;4989923;28;20582;-64
2022/11/29 08:56:35;;;;;;;28.57;16.73;;;;;;;7.26;92.13;100554.59;4990375;28;20954;-63
2022/11/29 08:59:24;;;;;;;28.63;16.33;;;;;;;7.38;92.23;100557.56;4990163;28;20613;-64
2022/11/29 09:01:51;;;;;;;29.90;16.50;;;;;;;7.47;91.53;100560.47;4990022;28;20736;-65
2022/11/29 09:04:17;;;;;;;27.37;17.53;;;;;;;7.48;91.38;100559.63;4988322;28;20260;-63
2022/11/29 09:06:43;;;;;;;30.17;17.53;;;;;;;7.44;91.42;100565.66;4989648;28;20243;-64
2022/11/29 09:09:10;;;;;;;26.77;16.23;;;;;;;7.45;91.73;100570.06;4990607;28;20226;-64
2022/11/29 09:11:36;;;;;;;28.10;16.90;;;;;;;7.45;91.92;100572.69;4982218;28;20200;-65
2022/11/29 09:14:05;;;;;;;27.57;16.47;;;;;;;7.50;91.97;100577.25;4984170;28;20205;-64
2022/11/29 09:16:36;;;;;;;26.07;16.20;;;;;;;7.55;91.85;100580.91;4984823;28;20226;-65
2022/11/29 09:19:04;;;;;;;28.23;16.70;;;;;;;7.57;92.17;100585.31;4969308;28;20364;-63
2022/11/29 09:21:33;;;;;;;26.17;16.13;;;;;;;7.63;92.34;100583.78;4983112;28;20236;-64
2022/11/29 09:24:00;;;;;;;25.93;15.87;;;;;;;7.77;90.75;100590.31;4983002;28;20241;-66
2022/11/29 09:26:30;;;;;;;26.77;16.20;;;;;;;7.74;90.75;100594.63;4967123;28;20197;-65
2022/11/29 09:29:01;;;;;;;25.50;15.10;;;;;;;7.73;90.69;100595.47;4989480;28;20294;-64
2022/11/29 09:31:29;;;;;;;27.20;15.97;;;;;;;7.80;90.68;100597.44;4984766;28;20237;-64
2022/11/29 09:33:55;;;;;;;21.80;14.07;;;;;;;7.81;90.02;100586.03;4981603;28;20224;-66
2022/11/29 09:36:22;;;;;;;22.53;14.30;;;;;;;7.88;89.20;100593.25;4969687;28;20289;-63
2022/11/29 09:38:54;;;;;;;23.87;13.93;;;;;;;7.86;89.55;100595.84;4981402;28;20199;-63
2022/11/29 09:41:31;;;;;;;24.20;14.77;;;;;;;7.94;89.84;100600.44;4983098;28;20408;-61
2022/11/29 09:44:23;;;;;;;25.67;14.17;;;;;;;7.91;89.80;100602.97;4981760;28;20669;-63
2022/11/29 09:47:18;;;;;;;26.40;15.00;;;;;;;8.03;89.34;100608.63;4979798;28;20310;-63
2022/11/29 09:50:20;;;;;;;24.03;14.70;;;;;;;7.94;89.37;100610.97;4980589;28;20219;-62
2022/11/29 09:52:51;;;;;;;24.73;15.10;;;;;;;7.96;89.45;100611.91;4961310;28;20783;-61
2022/11/29 09:55:36;;;;;;;28.73;14.90;;;;;;;7.97;89.42;100606.69;4984738;28;20214;-62
2022/11/29 09:58:08;;;;;;;25.83;14.27;;;;;;;8.01;89.57;100608.56;4983917;28;20650;-63
2022/11/29 10:00:42;;;;;;;20.93;13.73;;;;;;;8.04;89.58;100616.56;4981622;28;20323;-63
2022/11/29 10:03:15;;;;;;;22.70;14.27;;;;;;;8.06;89.62;100606.06;4984125;28;20766;-63
2022/11/29 10:05:49;;;;;;;24.27;14.17;;;;;;;8.07;89.67;100619.28;4979674;28;20330;-63
2022/11/29 10:08:34;;;;;;;22.30;13.50;;;;;;;8.20;88.86;100607.31;4964718;28;20208;-63
2022/11/29 10:11:28;;;;;;;23.97;13.57;;;;;;;8.20;88.60;100612.59;4981926;28;20263;-65
2022/11/29 10:14:05;;;;;;;21.50;13.00;;;;;;;8.24;88.91;100618.81;4968471;28;20227;-64
2022/11/29 10:16:50;;;;;;;19.77;13.10;;;;;;;8.39;88.50;100620.16;4980127;28;20297;-64
2022/11/29 10:19:33;;;;;;;22.17;13.30;;;;;;;8.42;86.89;100617.63;4979708;28;20226;-65
2022/11/29 10:22:17;;;;;;;23.47;13.40;;;;;;;8.46;87.36;100608.91;4979924;28;20637;-63
2022/11/29 10:24:48;;;;;;;21.73;13.77;;;;;;;8.50;87.54;100615.16;4980537;28;20592;-63
2022/11/29 10:27:21;;;;;;;22.10;13.87;;;;;;;8.54;87.79;100610.84;4975712;28;20695;-64
2022/11/29 10:29:50;;;;;;;22.47;14.13;;;;;;;8.57;88.08;100610.94;4977829;28;20221;-65
2022/11/29 10:32:20;;;;;;;22.13;14.03;;;;;;;8.63;88.47;100604.03;4981798;28;20218;-65
2022/11/29 10:34:50;;;;;;;27.70;14.50;;;;;;;8.74;87.42;100615.75;4980154;28;20298;-63
2022/11/29 10:37:19;;;;;;;23.93;13.77;;;;;;;8.77;87.35;100610.53;4981734;28;20282;-64
2022/11/29 10:39:59;;;;;;;22.10;13.73;;;;;;;8.76;86.51;100602.59;4979778;28;20213;-67
2022/11/29 10:45:19;;;;;;;25.93;13.47;;;;;;;8.88;86.44;100613.47;4984342;28;20204;-64
2022/11/29 10:47:48;;;;;;;21.90;13.17;;;;;;;8.96;85.93;100608.34;4981232;28;20297;-66
2022/11/29 10:50:24;;;;;;;20.13;13.27;;;;;;;8.91;85.89;100615.28;4981370;28;20255;-65
2022/11/29 10:52:54;;;;;;;22.07;12.47;;;;;;;8.95;85.48;100615.38;4980969;28;20697;-65
2022/11/29 10:55:30;;;;;;;23.40;13.00;;;;;;;8.96;86.08;100618.91;4981701;28;20257;-65
2022/11/29 10:58:10;;;;;;;23.10;12.97;;;;;;;8.93;85.94;100625.03;4983858;28;20255;-65
2022/11/29 11:01:07;;;;;;;20.57;13.20;;;;;;;8.85;86.23;100616.03;5011100;23;20647;-69
2022/11/29 11:03:41;;;;;;;22.57;13.33;;;;;;;8.79;86.29;100613.22;4998142;28;20196;-68
2022/11/29 11:06:14;;;;;;;20.83;13.23;;;;;;;8.84;86.63;100623.91;5001875;28;20562;-68
2022/11/29 11:08:44;;;;;;;26.57;14.13;;;;;;;8.86;86.60;100619.56;4987963;28;20205;-68
2022/11/29 11:11:13;;;;;;;23.90;14.40;;;;;;;8.86;86.74;100620.47;4986561;28;20763;-70
2022/11/29 11:13:40;;;;;;;24.67;12.77;;;;;;;8.92;86.67;100623.25;4980572;28;20221;-69
2022/11/29 11:16:23;;;;;;;21.93;12.10;;;;;;;8.92;86.04;100620.59;4983083;28;20217;-69
2022/11/29 11:18:49;;;;;;;20.37;12.47;;;;;;;8.95;86.68;100623.31;4980947;28;20200;-66
2022/11/29 11:21:19;;;;;;;21.57;12.27;;;;;;;9.07;86.07;100620.06;4983041;28;20252;-71
2022/11/29 11:23:58;;;;;;;18.63;11.87;;;;;;;9.08;85.99;100624.47;4978422;28;20284;-70
2022/11/29 11:26:26;;;;;;;19.53;12.40;;;;;;;9.15;85.59;100625.50;4980623;28;20288;-68
2022/11/29 11:28:52;;;;;;;20.40;11.43;;;;;;;9.20;86.03;100632.66;4979280;28;20639;-66
2022/11/29 11:31:38;;;;;;;19.77;11.80;;;;;;;9.23;85.88;100609.00;4983552;28;20631;-68
2022/11/29 11:34:25;;;;;;;16.37;11.00;;;;;;;9.26;85.52;100629.31;4981197;28;20244;-68
2022/11/29 11:37:15;;;;;;;23.87;12.17;;;;;;;9.44;84.54;100627.06;4979107;28;20204;-68
2022/11/29 11:39:43;;;;;;;18.63;11.70;;;;;;;9.51;83.59;100620.16;4972976;28;20232;-69
2022/11/29 11:44:59;;;;;;;17.70;11.63;;;;;;;9.49;83.75;100613.94;4980816;28;20287;-68
2022/11/29 11:47:28;;;;;;;19.93;12.07;;;;;;;9.54;83.84;100620.19;4979643;28;20211;-68
2022/11/29 11:50:05;;;;;;;18.63;11.93;;;;;;;9.54;83.86;100626.38;4980741;28;20225;-68
2022/11/29 11:52:38;;;;;;;20.83;11.57;;;;;;;9.57;84.16;100617.63;4980858;28;20233;-68
2022/11/29 11:55:20;;;;;;;21.00;11.83;;;;;;;9.54;83.80;100628.13;4981833;28;20270;-68
2022/11/29 11:58:02;;;;;;;21.37;11.87;;;;;;;9.47;84.11;100623.59;4982972;28;20197;-68
2022/11/29 12:00:44;;;;;;;20.73;12.00;;;;;;;9.47;84.36;100636.81;4978276;28;20228;-69
2022/11/29 12:03:54;;;;;;;20.83;12.23;;;;;;;9.35;84.58;100627.75;4986561;28;20286;-68
2022/11/29 12:06:40;;;;;;;19.13;11.93;;;;;;;9.31;84.95;100628.56;4986431;28;20204;-68